Time;durP1;ratioP1;P1;durP2;ratioP2;P2;SDS_P1;SDS_P2;PMS_P1;PMS_P2;Temp;Humidity;BMP_temperature;BMP_pressure;BME280_temperature;BME280_humidity;BME280_pressure;Samples;Min_cycle;Max_cycle;Signal;HPM_P1;HPM_P2
2021/12/15 00:00:22;;;;;;;172.38;71.75;;;;;;;9.07;100.00;102811.56;7392038;19;20026;-55
2021/12/15 00:02:53;;;;;;;156.73;69.78;;;;;;;9.04;100.00;102815.91;7393174;19;20791;-53
2021/12/15 00:05:24;;;;;;;153.48;65.18;;;;;;;9.05;100.00;102813.28;7392665;19;20018;-55
2021/12/15 00:08:00;;;;;;;156.90;69.65;;;;;;;9.09;100.00;102808.94;7391999;19;20025;-58
2021/12/15 00:10:30;;;;;;;163.35;71.07;;;;;;;9.08;100.00;102810.66;7392492;19;20045;-59
2021/12/15 00:12:59;;;;;;;150.85;67.60;;;;;;;9.09;100.00;102807.16;7392330;19;20018;-58
2021/12/15 00:15:29;;;;;;;150.63;64.95;;;;;;;9.11;100.00;102807.16;7392493;19;20018;-58
2021/12/15 00:17:59;;;;;;;156.50;70.05;;;;;;;9.10;100.00;102805.44;7391734;19;20130;-60
2021/12/15 00:20:30;;;;;;;152.25;68.00;;;;;;;9.06;100.00;102801.09;7391962;19;20475;-59
2021/12/15 00:23:02;;;;;;;157.68;68.25;;;;;;;8.99;100.00;102798.50;7392620;19;20015;-59
2021/12/15 00:25:34;;;;;;;146.80;66.68;;;;;;;9.01;100.00;102798.50;7392054;19;20053;-57
2021/12/15 00:28:04;;;;;;;155.15;66.55;;;;;;;9.01;100.00;102801.13;7391130;19;20019;-56
2021/12/15 00:30:33;;;;;;;144.45;65.80;;;;;;;8.99;100.00;102789.81;7389120;19;20066;-59
2021/12/15 00:33:02;;;;;;;152.20;68.47;;;;;;;8.99;100.00;102798.50;7389429;19;20493;-60
2021/12/15 00:35:31;;;;;;;154.75;68.50;;;;;;;8.97;100.00;102797.66;7391113;19;20039;-57
2021/12/15 00:38:02;;;;;;;160.98;69.68;;;;;;;9.00;100.00;102797.63;7393337;19;20113;-57
2021/12/15 00:40:31;;;;;;;159.93;69.82;;;;;;;8.98;100.00;102802.03;7389548;19;20014;-55
2021/12/15 00:43:01;;;;;;;149.40;67.07;;;;;;;8.97;100.00;102805.50;7391220;19;20007;-57
2021/12/15 00:45:30;;;;;;;144.52;66.47;;;;;;;9.00;100.00;102802.88;7391193;19;20130;-57
2021/12/15 00:47:59;;;;;;;156.65;66.30;;;;;;;9.03;100.00;102801.09;7388772;19;20352;-57
2021/12/15 00:50:32;;;;;;;159.18;69.13;;;;;;;9.04;100.00;102800.22;7389043;19;20053;-57
2021/12/15 00:53:05;;;;;;;159.57;69.10;;;;;;;9.07;100.00;102797.59;7389574;19;20028;-57
2021/12/15 00:55:35;;;;;;;159.48;69.63;;;;;;;9.07;100.00;102797.59;7390525;19;20015;-53
2021/12/15 00:58:05;;;;;;;153.07;67.90;;;;;;;9.07;100.00;102792.38;7389465;19;20074;-56
2021/12/15 01:00:38;;;;;;;151.80;70.85;;;;;;;9.04;100.00;102797.63;7389061;19;20014;-55
2021/12/15 01:03:08;;;;;;;151.35;67.03;;;;;;;9.03;100.00;102799.38;7390134;19;20013;-53
2021/12/15 01:05:40;;;;;;;172.45;74.07;;;;;;;9.05;100.00;102797.59;7388256;19;20085;-61
2021/12/15 01:08:17;;;;;;;165.57;70.90;;;;;;;9.05;100.00;102791.50;7389722;19;20050;-61
2021/12/15 01:11:01;;;;;;;161.00;70.35;;;;;;;9.04;100.00;102800.22;7388831;19;20025;-59
2021/12/15 01:21:39;;;;;;;171.73;71.80;;;;;;;9.01;100.00;102806.34;7387949;19;20082;-56
2021/12/15 01:24:11;;;;;;;161.20;69.97;;;;;;;9.04;100.00;102803.72;7390110;19;20074;-59
2021/12/15 01:26:40;;;;;;;168.05;71.35;;;;;;;9.05;100.00;102795.00;7388516;19;20017;-56
2021/12/15 01:29:08;;;;;;;160.05;69.28;;;;;;;9.04;100.00;102793.28;7389573;19;20021;-56
2021/12/15 01:31:37;;;;;;;161.60;69.40;;;;;;;9.05;100.00;102797.59;7387776;19;20018;-54
2021/12/15 01:34:06;;;;;;;162.35;68.05;;;;;;;9.08;100.00;102802.81;7389341;19;20017;-60
2021/12/15 01:36:35;;;;;;;158.23;67.18;;;;;;;9.11;100.00;102796.69;7388802;19;20014;-57
2021/12/15 01:39:05;;;;;;;156.48;68.90;;;;;;;9.13;100.00;102794.97;7389069;19;20018;-56
2021/12/15 01:41:38;;;;;;;168.68;73.28;;;;;;;9.15;100.00;102801.03;7387773;19;20104;-58
2021/12/15 01:46:56;;;;;;;177.52;70.88;;;;;;;9.14;100.00;102797.56;7387583;19;20495;-56
2021/12/15 01:49:29;;;;;;;158.02;67.72;;;;;;;9.14;100.00;102800.19;7389621;19;20010;-55
2021/12/15 01:52:01;;;;;;;154.15;67.75;;;;;;;9.11;100.00;102804.53;7391757;19;20055;-55
2021/12/15 01:54:37;;;;;;;158.30;70.35;;;;;;;9.10;100.00;102803.69;7394018;19;20070;-58
2021/12/15 01:57:11;;;;;;;165.98;69.70;;;;;;;9.07;100.00;102806.31;7393753;19;20333;-55
2021/12/15 01:59:41;;;;;;;171.55;71.03;;;;;;;9.09;100.00;102801.09;7393851;19;20078;-55
2021/12/15 02:02:10;;;;;;;164.75;69.25;;;;;;;9.05;100.00;102807.22;7391708;19;20111;-59
2021/12/15 02:04:40;;;;;;;167.32;70.15;;;;;;;9.03;100.00;102801.09;7391634;19;20015;-56
2021/12/15 02:07:13;;;;;;;168.80;71.30;;;;;;;9.03;100.00;102811.56;7386382;19;20246;-58
2021/12/15 02:12:33;;;;;;;162.38;68.75;;;;;;;9.04;100.00;102821.16;7388915;19;20015;-61
2021/12/15 02:15:02;;;;;;;162.80;67.93;;;;;;;9.04;100.00;102819.44;7387894;19;20029;-55
2021/12/15 02:17:31;;;;;;;164.20;69.03;;;;;;;9.05;100.00;102826.38;7386900;19;20110;-61
2021/12/15 02:20:00;;;;;;;156.40;68.50;;;;;;;9.03;100.00;102825.53;7386728;19;20011;-59
2021/12/15 02:22:32;;;;;;;159.60;67.15;;;;;;;9.00;100.00;102818.56;7388603;19;20090;-61
2021/12/15 02:25:02;;;;;;;151.93;66.33;;;;;;;9.05;100.00;102822.91;7387792;19;20006;-57
2021/12/15 02:27:34;;;;;;;161.13;68.07;;;;;;;9.07;100.00;102815.91;7384702;19;20010;-59
2021/12/15 02:30:18;;;;;;;145.68;63.28;;;;;;;9.06;100.00;102822.03;7392929;19;20464;-61
2021/12/15 02:32:59;;;;;;;151.32;62.58;;;;;;;9.08;100.00;102818.50;7395942;19;20018;-59
2021/12/15 02:38:12;;;;;;;156.20;66.35;;;;;;;9.07;100.00;102815.91;7395245;19;20019;-56
2021/12/15 02:40:41;;;;;;;112.43;46.45;;;;;;;9.07;100.00;102818.50;7393896;19;20014;-55
2021/12/15 02:43:10;;;;;;;136.38;61.42;;;;;;;9.09;100.00;102822.00;7394780;19;20026;-58
2021/12/15 02:45:39;;;;;;;141.38;62.83;;;;;;;9.06;100.00;102819.41;7395030;19;20011;-57
2021/12/15 02:48:08;;;;;;;145.45;62.03;;;;;;;9.06;100.00;102825.50;7393772;19;20018;-54
2021/12/15 02:50:37;;;;;;;138.00;60.70;;;;;;;9.08;100.00;102818.50;7393639;19;20018;-55
2021/12/15 02:53:07;;;;;;;144.60;62.83;;;;;;;9.10;100.00;102813.28;7394084;19;20030;-61
2021/12/15 02:55:38;;;;;;;148.40;62.67;;;;;;;9.13;100.00;102815.88;7394286;19;20011;-57
2021/12/15 02:58:07;;;;;;;139.98;61.88;;;;;;;9.12;100.00;102816.75;7394097;19;20022;-55
2021/12/15 03:00:48;;;;;;;140.35;60.65;;;;;;;9.12;100.00;102815.00;7393272;19;20030;-57
2021/12/15 03:03:52;;;;;;;147.93;61.67;;;;;;;9.13;100.00;102814.13;7394523;19;20018;-56
2021/12/15 03:06:29;;;;;;;144.02;59.22;;;;;;;9.13;100.00;102814.13;7393979;19;20061;-57
2021/12/15 03:09:12;;;;;;;139.50;59.35;;;;;;;9.11;100.00;102820.25;7394489;19;20026;-58
2021/12/15 03:17:18;;;;;;;134.25;58.72;;;;;;;9.12;100.00;102815.00;7387996;19;20021;-55
2021/12/15 03:19:47;;;;;;;141.73;61.85;;;;;;;9.14;100.00;102809.75;7393689;19;20099;-59
2021/12/15 03:22:16;;;;;;;136.98;58.83;;;;;;;9.14;100.00;102809.75;7391867;19;20034;-60
2021/12/15 03:24:45;;;;;;;143.80;58.90;;;;;;;9.13;100.00;102821.13;7393041;19;20018;-57
2021/12/15 03:27:18;;;;;;;142.15;61.90;;;;;;;9.11;100.00;102815.00;7392218;19;20019;-61
2021/12/15 03:35:22;;;;;;;138.13;59.28;;;;;;;9.10;100.00;102818.53;7392225;19;20108;-57
2021/12/15 03:37:59;;;;;;;134.73;57.30;;;;;;;9.08;100.00;102820.25;7392423;19;20022;-59
2021/12/15 03:40:37;;;;;;;137.35;58.28;;;;;;;9.08;100.00;102815.03;7391031;19;20193;-57
2021/12/15 03:43:13;;;;;;;129.07;58.08;;;;;;;9.06;100.00;102820.28;7392351;19;20418;-55
2021/12/15 03:45:45;;;;;;;133.82;57.75;;;;;;;9.08;100.00;102815.88;7392657;19;20025;-57
2021/12/15 03:48:18;;;;;;;136.55;58.97;;;;;;;9.10;100.00;102823.75;7392074;19;20077;-57
2021/12/15 03:50:47;;;;;;;134.82;58.45;;;;;;;9.08;100.00;102810.66;7389953;19;20515;-60
2021/12/15 03:53:18;;;;;;;138.57;58.15;;;;;;;9.10;100.00;102822.00;7392114;19;20018;-55
2021/12/15 03:55:48;;;;;;;132.98;59.17;;;;;;;9.12;100.00;102829.84;7391141;19;20018;-59
2021/12/15 03:58:23;;;;;;;130.70;58.00;;;;;;;9.11;100.00;102828.09;7392518;19;20018;-61
2021/12/15 04:00:55;;;;;;;144.93;60.58;;;;;;;9.13;100.00;102827.19;7391288;19;20010;-61
2021/12/15 04:03:28;;;;;;;134.55;57.67;;;;;;;9.13;100.00;102823.72;7392165;19;20011;-57
2021/12/15 04:05:59;;;;;;;136.02;58.70;;;;;;;9.12;100.00;102829.84;7391466;19;20049;-57
2021/12/15 04:08:29;;;;;;;132.48;58.38;;;;;;;9.07;99.93;102829.88;7391504;19;20122;-60
2021/12/15 04:11:00;;;;;;;133.95;57.38;;;;;;;9.09;99.95;102829.84;7390437;19;20018;-61
2021/12/15 04:13:32;;;;;;;130.75;55.45;;;;;;;9.11;99.98;102831.59;7392360;19;20014;-60
2021/12/15 04:16:06;;;;;;;124.32;55.35;;;;;;;9.15;100.00;102837.66;7391385;19;20537;-59
2021/12/15 04:18:36;;;;;;;133.35;57.17;;;;;;;9.20;100.00;102832.38;7389943;19;20014;-56
2021/12/15 04:21:06;;;;;;;122.00;53.70;;;;;;;9.23;100.00;102835.00;7389953;19;20034;-61
2021/12/15 04:23:36;;;;;;;127.13;56.67;;;;;;;9.23;99.95;102835.00;7391837;19;20381;-58
2021/12/15 04:26:05;;;;;;;124.15;55.42;;;;;;;9.17;99.69;102839.38;7390744;19;20160;-61
2021/12/15 04:28:38;;;;;;;130.13;56.03;;;;;;;9.13;99.75;102840.28;7392000;19;20010;-61
2021/12/15 04:31:11;;;;;;;124.78;55.60;;;;;;;9.10;99.67;102847.28;7389870;19;20019;-62
2021/12/15 04:33:44;;;;;;;133.18;57.38;;;;;;;9.09;99.86;102845.53;7390073;19;20236;-58
2021/12/15 04:36:14;;;;;;;115.35;52.08;;;;;;;9.12;99.87;102840.28;7391427;19;20022;-62
2021/12/15 04:38:44;;;;;;;125.78;54.47;;;;;;;9.13;100.00;102848.13;7391021;19;20014;-61
2021/12/15 04:41:16;;;;;;;124.07;55.17;;;;;;;9.17;100.00;102841.16;7389707;19;20015;-58
2021/12/15 04:43:56;;;;;;;120.18;55.47;;;;;;;9.17;99.98;102841.16;7391165;19;20553;-61
2021/12/15 04:46:27;;;;;;;131.75;56.55;;;;;;;9.16;100.00;102840.25;7390834;19;20043;-61
2021/12/15 04:48:56;;;;;;;122.22;54.53;;;;;;;9.18;99.91;102845.47;7389913;19;20105;-60
2021/12/15 04:51:26;;;;;;;127.20;55.33;;;;;;;9.18;99.82;102848.97;7387743;19;20029;-62
2021/12/15 04:53:57;;;;;;;127.05;55.00;;;;;;;9.20;99.80;102851.59;7391413;19;20015;-62
2021/12/15 04:56:26;;;;;;;120.93;55.00;;;;;;;9.22;99.78;102852.44;7390227;19;20018;-60
2021/12/15 04:58:59;;;;;;;128.45;56.10;;;;;;;9.24;99.80;102850.69;7390982;19;20007;-62
2021/12/15 05:01:29;;;;;;;122.55;56.83;;;;;;;9.20;99.59;102850.69;7388655;19;20023;-62
2021/12/15 05:03:58;;;;;;;114.80;54.97;;;;;;;9.17;99.32;102856.84;7390830;19;20021;-62
2021/12/15 05:06:27;;;;;;;116.93;53.83;;;;;;;9.15;99.30;102855.97;7388113;19;20021;-62
2021/12/15 05:08:56;;;;;;;117.82;54.10;;;;;;;9.16;99.45;102855.09;7389123;19;20648;-62
2021/12/15 05:11:25;;;;;;;116.13;54.08;;;;;;;9.16;99.34;102858.56;7389569;19;20211;-62
2021/12/15 05:13:54;;;;;;;121.50;53.83;;;;;;;9.17;99.37;102854.22;7388794;19;20447;-62
2021/12/15 05:16:26;;;;;;;119.15;54.45;;;;;;;9.20;99.64;102853.31;7389954;19;20014;-61
2021/12/15 05:18:55;;;;;;;124.93;55.83;;;;;;;9.18;99.51;102848.09;7390162;19;20015;-60
2021/12/15 05:21:25;;;;;;;120.18;54.38;;;;;;;9.18;99.57;102856.84;7388240;19;20449;-62
2021/12/15 05:23:59;;;;;;;118.45;53.97;;;;;;;9.17;99.58;102857.69;7388803;19;20018;-58
2021/12/15 05:26:28;;;;;;;115.63;54.00;;;;;;;9.24;99.69;102866.41;7388894;19;20366;-60
2021/12/15 05:28:57;;;;;;;122.60;55.42;;;;;;;9.27;99.60;102862.88;7388561;19;20018;-60
2021/12/15 05:31:28;;;;;;;118.85;53.97;;;;;;;9.30;99.59;102868.09;7388365;19;20010;-57
2021/12/15 05:33:57;;;;;;;121.63;53.05;;;;;;;9.31;99.48;102867.19;7389798;19;20037;-63
2021/12/15 05:36:26;;;;;;;115.80;53.03;;;;;;;9.30;99.46;102866.34;7388890;19;20011;-58
2021/12/15 05:38:55;;;;;;;118.97;53.85;;;;;;;9.28;99.20;102870.69;7389636;19;20019;-60
2021/12/15 05:41:24;;;;;;;120.63;54.60;;;;;;;9.29;99.10;102879.44;7387528;19;20074;-59
2021/12/15 05:43:53;;;;;;;120.22;52.97;;;;;;;9.29;99.52;102868.97;7389035;19;20007;-59
2021/12/15 05:46:23;;;;;;;118.80;52.20;;;;;;;9.31;99.44;102886.41;7387028;19;20007;-60
2021/12/15 05:48:54;;;;;;;118.70;54.33;;;;;;;9.34;99.61;102878.53;7388491;19;20317;-59
2021/12/15 05:51:23;;;;;;;128.77;57.40;;;;;;;9.31;99.38;102872.44;7388857;19;20014;-59
2021/12/15 05:53:52;;;;;;;121.93;56.25;;;;;;;9.31;99.46;102873.31;7388638;19;20015;-60
2021/12/15 05:56:21;;;;;;;130.30;57.17;;;;;;;9.32;99.16;102874.19;7387913;19;20090;-61
2021/12/15 05:58:50;;;;;;;121.38;55.17;;;;;;;9.32;99.08;102868.94;7389165;19;20011;-56
2021/12/15 06:01:19;;;;;;;118.97;53.60;;;;;;;9.32;99.27;102879.41;7386549;19;20017;-60
2021/12/15 06:03:49;;;;;;;118.72;55.40;;;;;;;9.34;99.12;102878.53;7393673;19;20025;-62
2021/12/15 06:06:21;;;;;;;124.13;55.90;;;;;;;9.34;99.21;102878.53;7395963;19;20018;-60
2021/12/15 06:08:49;;;;;;;121.68;55.45;;;;;;;9.37;99.15;102876.75;7395940;19;20013;-61
2021/12/15 06:11:18;;;;;;;124.22;55.17;;;;;;;9.38;99.17;102878.50;7393980;19;20047;-59
2021/12/15 06:13:50;;;;;;;123.85;56.13;;;;;;;9.35;99.18;102880.25;7396907;19;20021;-59
2021/12/15 06:16:20;;;;;;;124.82;56.05;;;;;;;9.37;99.13;102882.88;7396130;19;20123;-58
2021/12/15 06:18:51;;;;;;;126.05;55.70;;;;;;;9.37;99.13;102892.47;7396423;19;20352;-58
2021/12/15 06:21:24;;;;;;;111.10;52.58;;;;;;;9.37;99.00;102882.88;7393639;19;20422;-59
2021/12/15 06:23:53;;;;;;;;;;;;;;;9.35;99.08;102888.09;7393749;19;20029;-57
2021/12/15 06:26:22;;;;;;;118.90;54.15;;;;;;;9.34;99.14;102889.00;7392517;19;20073;-59
2021/12/15 06:28:51;;;;;;;120.68;54.45;;;;;;;9.34;99.05;102891.63;7396035;19;20455;-59
2021/12/15 06:31:20;;;;;;;120.03;54.78;;;;;;;9.33;99.03;102895.09;7392862;19;20119;-59
2021/12/15 06:33:49;;;;;;;123.85;55.88;;;;;;;9.34;98.99;102890.72;7395889;19;20352;-58
2021/12/15 06:36:21;;;;;;;114.10;53.67;;;;;;;9.34;99.30;102902.09;7394367;19;20042;-59
2021/12/15 06:38:55;;;;;;;115.93;54.73;;;;;;;9.35;99.05;102895.94;7392656;19;20010;-59
2021/12/15 06:41:25;;;;;;;125.13;57.55;;;;;;;9.36;98.82;102896.84;7392647;19;20275;-59
2021/12/15 06:43:58;;;;;;;115.57;54.30;;;;;;;9.39;98.87;102885.50;7394549;19;20013;-58
2021/12/15 06:47:01;;;;;;;;;;;;;;;9.37;98.90;102889.84;7391857;19;20018;-60
2021/12/15 06:58:11;;;;;;;124.15;56.40;;;;;;;9.52;98.83;102890.63;7394077;19;20010;-61
2021/12/15 07:00:29;;;;;;;120.05;53.30;;;;;;;9.52;98.58;102902.84;7393634;19;20216;-59
2021/12/15 07:02:59;;;;;;;113.47;52.53;;;;;;;9.56;98.81;102906.31;7394322;19;20014;-61
2021/12/15 07:05:30;;;;;;;113.25;54.83;;;;;;;9.55;98.64;102907.19;7394898;19;20011;-59
2021/12/15 07:08:00;;;;;;;117.13;54.90;;;;;;;9.50;98.65;102909.84;7394549;19;20011;-62
2021/12/15 07:10:34;;;;;;;119.40;53.92;;;;;;;9.52;98.77;102914.16;7394415;19;20014;-61
2021/12/15 07:13:03;;;;;;;119.43;55.65;;;;;;;9.55;98.67;102926.38;7395178;19;20011;-59
2021/12/15 07:15:34;;;;;;;118.88;56.00;;;;;;;9.53;98.71;102926.38;7392708;19;20018;-61
2021/12/15 07:18:05;;;;;;;124.40;53.72;;;;;;;9.55;98.67;102925.53;7394648;19;20082;-60
2021/12/15 07:20:46;;;;;;;117.18;53.15;;;;;;;9.57;98.66;102923.75;7393712;19;20018;-61
2021/12/15 07:23:18;;;;;;;123.53;53.88;;;;;;;9.60;98.68;102927.22;7391895;19;20018;-59
2021/12/15 07:25:52;;;;;;;127.03;54.95;;;;;;;9.61;98.74;102921.09;7393729;19;20010;-57
2021/12/15 07:28:24;;;;;;;122.90;54.78;;;;;;;9.59;98.69;102919.38;7394906;19;20021;-61
2021/12/15 07:30:53;;;;;;;122.93;52.88;;;;;;;9.57;98.54;102921.13;7392106;19;20520;-56
2021/12/15 07:33:22;;;;;;;125.10;54.78;;;;;;;9.56;98.63;102915.03;7391806;19;20034;-56
2021/12/15 07:35:52;;;;;;;123.75;54.40;;;;;;;9.57;98.65;102916.78;7393327;19;20337;-61
2021/12/15 07:38:21;;;;;;;125.40;50.92;;;;;;;9.58;98.85;102915.88;7391097;19;20439;-62
2021/12/15 07:40:52;;;;;;;120.50;51.45;;;;;;;9.60;98.65;102919.38;7391571;19;20482;-58
2021/12/15 07:43:26;;;;;;;121.03;51.75;;;;;;;9.60;98.72;102927.22;7395616;19;20100;-56
2021/12/15 07:46:01;;;;;;;134.00;56.10;;;;;;;9.55;98.59;102926.38;7391183;19;20018;-57
2021/12/15 07:48:34;;;;;;;138.88;55.88;;;;;;;9.52;98.68;102932.50;7394346;19;20021;-59
2021/12/15 07:51:06;;;;;;;145.90;56.80;;;;;;;9.52;98.87;102932.50;7391690;19;20077;-61
2021/12/15 07:53:35;;;;;;;124.55;53.45;;;;;;;9.48;98.54;102930.75;7393779;19;20014;-58
2021/12/15 07:56:07;;;;;;;138.90;54.33;;;;;;;9.51;98.88;102940.34;7392307;19;20453;-61
2021/12/15 07:58:37;;;;;;;149.00;57.28;;;;;;;9.52;99.30;102936.88;7392726;19;20006;-59
2021/12/15 08:01:07;;;;;;;136.45;53.72;;;;;;;9.53;99.27;102943.84;7391361;19;20018;-58
2021/12/15 08:03:39;;;;;;;134.93;53.90;;;;;;;9.57;99.08;102948.19;7392185;19;20472;-59
2021/12/15 08:06:08;;;;;;;134.82;55.85;;;;;;;9.61;99.15;102947.28;7393099;19;20118;-57
2021/12/15 08:08:37;;;;;;;139.40;56.50;;;;;;;9.62;99.15;102937.69;7394107;19;20018;-61
2021/12/15 08:11:09;;;;;;;140.50;56.22;;;;;;;9.64;99.11;102934.19;7392198;19;20111;-61
2021/12/15 08:13:39;;;;;;;142.18;54.88;;;;;;;9.63;99.04;102939.44;7390847;19;20028;-58
2021/12/15 08:16:09;;;;;;;152.45;56.35;;;;;;;9.63;98.97;102936.81;7392371;19;20023;-60
2021/12/15 08:18:38;;;;;;;158.30;57.17;;;;;;;9.64;99.04;102944.66;7392432;19;20013;-62
2021/12/15 08:21:07;;;;;;;141.02;54.65;;;;;;;9.64;98.97;102941.16;7391632;19;20014;-60
2021/12/15 08:23:36;;;;;;;146.48;58.33;;;;;;;9.63;98.65;102955.13;7391778;19;20018;-58
2021/12/15 08:26:09;;;;;;;140.90;55.25;;;;;;;9.57;98.70;102947.31;7390879;19;20017;-60
2021/12/15 08:28:38;;;;;;;139.10;55.45;;;;;;;9.57;98.84;102942.97;7389963;19;20030;-57
2021/12/15 08:31:08;;;;;;;143.43;56.70;;;;;;;9.55;99.14;102946.47;7391235;19;20033;-60
2021/12/15 08:33:38;;;;;;;138.60;55.35;;;;;;;9.53;99.03;102956.94;7391768;19;20019;-60
2021/12/15 08:36:10;;;;;;;130.15;51.33;;;;;;;9.59;99.14;102954.28;7391253;19;20413;-61
2021/12/15 08:38:42;;;;;;;140.80;56.25;;;;;;;9.60;99.18;102949.91;7391680;19;20010;-57
2021/12/15 08:41:16;;;;;;;;;;;;;;;9.64;99.01;102967.31;7391580;19;20133;-59
2021/12/15 08:43:45;;;;;;;147.38;56.90;;;;;;;9.65;99.10;102956.00;7390892;19;19921;-61
2021/12/15 08:46:18;;;;;;;136.43;54.90;;;;;;;9.67;99.20;102956.84;7390447;19;20364;-59
2021/12/15 08:48:48;;;;;;;142.82;57.05;;;;;;;9.67;99.09;102957.72;7391638;19;20022;-62
2021/12/15 08:51:25;;;;;;;144.90;56.28;;;;;;;9.66;98.65;102955.13;7389863;19;20014;-62
2021/12/15 08:53:55;;;;;;;147.57;56.65;;;;;;;9.64;98.64;102954.25;7391879;19;20014;-62
2021/12/15 08:56:27;;;;;;;136.57;55.80;;;;;;;9.62;98.52;102951.63;7391238;19;20027;-57
2021/12/15 08:58:56;;;;;;;147.38;57.58;;;;;;;9.58;98.67;102957.75;7392010;19;20444;-61
2021/12/15 09:01:25;;;;;;;138.02;54.78;;;;;;;9.63;98.66;102956.00;7390291;19;20060;-55
2021/12/15 09:03:55;;;;;;;136.02;55.80;;;;;;;9.69;98.85;102963.81;7389460;19;20082;-61
2021/12/15 09:06:24;;;;;;;146.32;56.05;;;;;;;9.68;99.04;102964.69;7389714;19;20498;-60
2021/12/15 09:08:53;;;;;;;142.15;55.75;;;;;;;9.72;98.70;102959.44;7388700;19;20110;-60
2021/12/15 09:11:27;;;;;;;143.35;58.78;;;;;;;9.74;98.68;102955.06;7388706;19;20025;-61
2021/12/15 09:14:00;;;;;;;141.63;57.08;;;;;;;9.77;98.62;102958.53;7388840;19;20029;-59
2021/12/15 09:16:30;;;;;;;143.38;57.63;;;;;;;9.73;98.23;102961.16;7390951;19;20011;-61
2021/12/15 09:19:00;;;;;;;145.18;56.95;;;;;;;9.74;98.08;102970.78;7391238;19;20015;-58
2021/12/15 09:21:32;;;;;;;147.50;57.97;;;;;;;9.73;98.04;102966.41;7389992;19;20014;-61
2021/12/15 09:24:02;;;;;;;140.23;57.45;;;;;;;9.74;98.14;102961.16;7390228;19;20055;-58
2021/12/15 09:26:34;;;;;;;146.90;58.53;;;;;;;9.71;97.81;102969.03;7388350;19;20017;-60
2021/12/15 09:29:03;;;;;;;137.25;56.30;;;;;;;9.70;97.98;102972.56;7393818;19;20060;-61
2021/12/15 09:31:32;;;;;;;137.23;55.25;;;;;;;9.73;97.95;102972.53;7393012;19;20014;-61
2021/12/15 09:34:01;;;;;;;129.82;53.40;;;;;;;9.79;98.00;102977.72;7389940;19;20019;-59
2021/12/15 09:36:30;;;;;;;135.30;54.95;;;;;;;9.81;97.73;102981.19;7389351;19;20021;-61
2021/12/15 09:39:04;;;;;;;133.82;55.80;;;;;;;9.79;97.93;102979.47;7388971;19;20334;-60
2021/12/15 09:41:36;;;;;;;140.18;57.33;;;;;;;9.73;97.23;102980.38;7388968;19;20021;-61
2021/12/15 09:44:09;;;;;;;130.63;54.50;;;;;;;9.71;97.49;102987.34;7391079;19;20094;-61
2021/12/15 09:47:03;;;;;;;129.77;54.15;;;;;;;9.76;97.73;102989.97;7390491;19;20078;-60
2021/12/15 10:01:58;;;;;;;136.10;56.45;;;;;;;9.76;97.55;102993.44;7390297;19;20035;-62
2021/12/15 10:03:55;;;;;;;134.93;56.08;;;;;;;9.77;97.44;102984.72;7383850;19;20021;-57
2021/12/15 10:06:48;;;;;;;132.35;56.53;;;;;;;9.76;97.39;102997.81;7389258;19;20017;-60
2021/12/15 10:12:23;;;;;;;127.80;55.70;;;;;;;9.79;97.39;102990.81;7387688;19;20023;-60
2021/12/15 10:18:02;;;;;;;123.88;53.72;;;;;;;9.82;97.15;103001.25;7384656;19;20476;-59
2021/12/15 10:20:35;;;;;;;127.78;53.42;;;;;;;9.86;97.37;102996.88;7387934;19;20015;-61
2021/12/15 10:23:07;;;;;;;;;;;;;;;9.87;96.99;102998.59;7389599;19;20025;-59
2021/12/15 10:25:38;;;;;;;117.03;51.58;;;;;;;9.87;97.03;102999.50;7389216;19;19923;-60
2021/12/15 10:28:11;;;;;;;124.25;53.22;;;;;;;9.87;96.63;103002.13;7389642;19;20760;-59
2021/12/15 10:30:47;;;;;;;121.78;55.10;;;;;;;9.92;96.78;102999.47;7388777;19;20015;-62
2021/12/15 10:33:20;;;;;;;121.22;54.47;;;;;;;9.97;96.77;103000.31;7387311;19;20122;-60
2021/12/15 10:35:51;;;;;;;121.18;55.40;;;;;;;9.95;96.55;102999.44;7386529;19;20074;-61
2021/12/15 10:38:25;;;;;;;114.68;54.55;;;;;;;9.98;96.28;103006.41;7389840;19;20363;-60
2021/12/15 10:40:59;;;;;;;111.57;53.72;;;;;;;9.94;95.87;103002.06;7389820;19;20023;-60
2021/12/15 10:43:33;;;;;;;109.90;52.83;;;;;;;9.98;95.77;103006.41;7390110;19;20078;-61
2021/12/15 10:46:08;;;;;;;108.50;53.50;;;;;;;9.98;95.56;103017.75;7390261;19;20006;-61
2021/12/15 10:48:46;;;;;;;102.82;51.72;;;;;;;10.00;95.73;103012.50;7388062;19;20014;-60
2021/12/15 10:51:35;;;;;;;103.43;53.25;;;;;;;10.01;95.74;103006.38;7393230;19;20022;-61
2021/12/15 10:54:07;;;;;;;104.80;52.85;;;;;;;10.01;95.96;103002.00;7396403;19;20011;-60
2021/12/15 10:56:38;;;;;;;110.20;54.87;;;;;;;10.06;95.79;103007.22;7392916;19;20539;-59
2021/12/15 10:59:10;;;;;;;105.97;53.65;;;;;;;10.05;95.55;102995.00;7396863;19;20015;-61
2021/12/15 11:02:00;;;;;;;106.83;54.27;;;;;;;10.07;95.60;102995.84;7394797;19;20045;-61
2021/12/15 11:04:40;;;;;;;103.75;52.58;;;;;;;10.07;95.33;102995.84;7394112;19;20049;-62
2021/12/15 11:07:20;;;;;;;106.40;54.85;;;;;;;10.07;95.39;102995.84;7394120;19;20457;-61
2021/12/15 11:09:53;;;;;;;99.90;53.10;;;;;;;10.09;94.98;102993.25;7394143;19;20027;-62
2021/12/15 11:12:23;;;;;;;;;;;;;;;10.07;94.96;102995.84;7395749;19;20115;-61
2021/12/15 11:14:54;;;;;;;99.68;51.30;;;;;;;10.09;95.00;102999.34;7395854;19;19921;-61
2021/12/15 11:17:28;;;;;;;99.50;51.55;;;;;;;10.13;95.23;103000.19;7392088;19;20025;-61
2021/12/15 11:20:01;;;;;;;96.35;51.45;;;;;;;10.14;95.14;102991.44;7391787;19;20030;-61
2021/12/15 11:22:52;;;;;;;97.45;51.95;;;;;;;10.19;95.27;102990.53;7394559;19;20416;-60
2021/12/15 11:25:29;;;;;;;96.35;50.55;;;;;;;10.24;95.03;102994.88;7394352;19;20040;-58
2021/12/15 11:28:02;;;;;;;93.55;51.17;;;;;;;10.22;94.68;102992.28;7393526;19;20030;-61
2021/12/15 11:30:36;;;;;;;90.07;50.25;;;;;;;10.24;94.69;102994.88;7393459;19;20483;-59
2021/12/15 11:33:10;;;;;;;92.72;50.80;;;;;;;10.25;94.46;103001.88;7394782;19;20092;-60
2021/12/15 11:35:42;;;;;;;93.45;51.78;;;;;;;10.27;94.63;102997.47;7394265;19;20031;-60
2021/12/15 11:38:16;;;;;;;88.82;49.33;;;;;;;10.27;94.23;103006.19;7393877;19;20532;-61
2021/12/15 11:40:50;;;;;;;91.88;49.95;;;;;;;10.30;94.20;102987.84;7392776;19;20083;-60
2021/12/15 11:43:35;;;;;;;93.30;52.17;;;;;;;10.32;94.08;102988.69;7393519;19;20048;-60
2021/12/15 11:46:14;;;;;;;88.43;49.55;;;;;;;10.33;94.25;102990.44;7390226;19;20018;-61
2021/12/15 11:48:49;;;;;;;88.63;50.03;;;;;;;10.37;94.02;102986.94;7393054;19;20015;-61
2021/12/15 11:51:30;;;;;;;85.55;48.70;;;;;;;10.35;93.80;102978.22;7392124;19;20482;-60
2021/12/15 11:53:59;;;;;;;85.25;49.30;;;;;;;10.35;93.48;102977.34;7393717;19;20018;-61
2021/12/15 11:56:33;;;;;;;82.40;47.90;;;;;;;10.34;93.42;102983.47;7392211;19;20010;-61
2021/12/15 11:59:19;;;;;;;82.63;48.80;;;;;;;10.33;93.40;102982.56;7393673;19;20066;-61
2021/12/15 12:01:55;;;;;;;84.25;49.65;;;;;;;10.31;93.42;102983.47;7391705;19;20110;-60
2021/12/15 12:04:30;;;;;;;81.10;47.78;;;;;;;10.35;93.66;102970.34;7392750;19;20010;-61
2021/12/15 12:07:13;;;;;;;80.47;48.22;;;;;;;10.35;93.34;102977.34;7392490;19;20356;-60
2021/12/15 12:09:45;;;;;;;78.82;47.53;;;;;;;10.33;93.45;102977.34;7392489;19;20015;-59
2021/12/15 12:12:16;;;;;;;75.72;44.72;;;;;;;10.35;93.68;102970.34;7392002;19;20014;-59
2021/12/15 12:14:49;;;;;;;84.43;49.13;;;;;;;10.37;93.43;102973.84;7392376;19;20029;-60
2021/12/15 12:17:22;;;;;;;77.13;46.85;;;;;;;10.41;93.32;102973.81;7392132;19;20483;-59
2021/12/15 12:19:58;;;;;;;76.63;47.42;;;;;;;10.42;93.26;102972.94;7389194;19;20102;-60
2021/12/15 12:22:30;;;;;;;76.70;47.55;;;;;;;10.39;93.02;102974.69;7392716;19;20094;-60